Terminal Aerodrome Forecast
Issued by NWS

Home | Current Version | Previous Version | Text Only | Print | Product List | Glossary On
Versions: 1 2 3 4 5 6 7 8 9 10 11 12 13 14 15 16 17 18 19 20 21 22 23 24 25 26 27 28 29 30 31 32 33 34
000
FTAK31 PANC 252333
TAFADQ
TAF
PADQ 252333Z 2600/2624 04015KT P6SM SCT015 OVC040
      TEMPO 2600/2604 6SM -RA BR OVC015
     FM260400 02020G30KT P6SM -SHRA BKN015 OVC040
     FM260800 01023G30KT P6SM OVC050
     FM261600 34025G35KT 3SM -RA BR OVC012=

USA.gov is the U.S. government's official web portal to all federal, state and local government web resources and services.